Time;durP1;ratioP1;P1;durP2;ratioP2;P2;SDS_P1;SDS_P2;PMS_P1;PMS_P2;Temp;Humidity;BMP_temperature;BMP_pressure;BME280_temperature;BME280_humidity;BME280_pressure;Samples;Min_cycle;Max_cycle;Signal;HPM_P1;HPM_P2
2021/11/05 00:01:12;;;;;;;0.82;0.80;;;;;;;;;;10340376;28;20113;-81
2021/11/05 00:06:13;;;;;;;4.70;2.08;;;;;;;;;;10340129;28;20066;-80
2021/11/05 00:11:13;;;;;;;7.55;2.03;;;;;;;;;;10339326;28;20058;-80
2021/11/05 00:16:13;;;;;;;13.82;2.08;;;;;;;;;;10338342;28;20031;-80
2021/11/05 00:21:13;;;;;;;4.68;1.58;;;;;;;;;;10336124;28;20134;-80
2021/11/05 00:26:14;;;;;;;2.85;1.60;;;;;;;;;;10337385;28;20038;-80
2021/11/05 00:31:14;;;;;;;4.43;1.63;;;;;;;;;;10337418;28;20034;-80
2021/11/05 00:36:14;;;;;;;3.88;1.67;;;;;;;;;;10335629;28;20037;-80
2021/11/05 00:41:15;;;;;;;10.82;2.08;;;;;;;;;;10336825;28;20089;-82
2021/11/05 00:46:15;;;;;;;6.80;2.22;;;;;;;;;;10336787;28;20089;-81
2021/11/05 00:51:15;;;;;;;5.05;2.42;;;;;;;;;;10336259;28;20121;-81
2021/11/05 00:56:16;;;;;;;19.02;3.47;;;;;;;;;;10336171;28;20430;-82
2021/11/05 01:01:16;;;;;;;11.10;1.63;;;;;;;;;;10337733;28;20072;-82
2021/11/05 01:06:18;;;;;;;3.30;2.58;;;;;;;;;;10336020;28;20088;-82
2021/11/05 01:11:18;;;;;;;8.70;2.53;;;;;;;;;;10316047;28;1241885;-82
2021/11/05 01:16:18;;;;;;;2.70;2.47;;;;;;;;;;10338807;28;20456;-82
2021/11/05 01:21:19;;;;;;;4.93;2.60;;;;;;;;;;10335305;28;20326;-82
2021/11/05 01:26:19;;;;;;;5.93;2.33;;;;;;;;;;10352783;28;20037;-81
2021/11/05 01:31:19;;;;;;;5.18;2.67;;;;;;;;;;10335436;28;20765;-81
2021/11/05 01:36:19;;;;;;;2.83;2.10;;;;;;;;;;10337193;28;20038;-82
2021/11/05 01:41:20;;;;;;;6.25;2.92;;;;;;;;;;10336668;28;20030;-81
2021/11/05 01:46:20;;;;;;;3.28;1.63;;;;;;;;;;10337562;28;20037;-81
2021/11/05 01:51:21;;;;;;;6.13;2.10;;;;;;;;;;10351418;28;20027;-81
2021/11/05 01:56:21;;;;;;;6.68;1.90;;;;;;;;;;10336193;28;20069;-82
2021/11/05 02:01:21;;;;;;;18.88;2.55;;;;;;;;;;10335480;28;20072;-82
2021/11/05 02:06:22;;;;;;;3.60;2.03;;;;;;;;;;10335043;28;20543;-82
2021/11/05 02:11:22;;;;;;;2.47;2.28;;;;;;;;;;10335523;28;20149;-82
2021/11/05 02:16:22;;;;;;;9.82;2.15;;;;;;;;;;10335451;28;20035;-82
2021/11/05 02:21:33;;;;;;;3.05;1.52;;;;;;;;;;10335069;28;20058;-82
2021/11/05 02:26:34;;;;;;;15.18;3.42;;;;;;;;;;10335640;28;20034;-81
2021/11/05 02:31:34;;;;;;;15.18;4.15;;;;;;;;;;10350085;28;20465;-82
2021/11/05 02:36:34;;;;;;;13.07;3.58;;;;;;;;;;10334821;28;20030;-82
2021/11/05 02:41:35;;;;;;;8.05;3.05;;;;;;;;;;10335733;28;20387;-83
2021/11/05 02:46:35;;;;;;;5.88;2.67;;;;;;;;;;10336653;28;20023;-83
2021/11/05 02:51:37;;;;;;;10.65;3.80;;;;;;;;;;10350353;28;20031;-83
2021/11/05 02:56:38;;;;;;;7.40;2.22;;;;;;;;;;10334479;28;20422;-82
2021/11/05 03:01:38;;;;;;;7.50;3.88;;;;;;;;;;10350006;28;20082;-82
2021/11/05 03:06:40;;;;;;;4.35;2.72;;;;;;;;;;10349064;28;20034;-82
2021/11/05 03:11:41;;;;;;;16.35;3.30;;;;;;;;;;10333950;28;20058;-82
2021/11/05 03:16:41;;;;;;;3.55;1.70;;;;;;;;;;10334291;28;20032;-82
2021/11/05 03:21:41;;;;;;;8.00;1.95;;;;;;;;;;10348757;28;20026;-82
2021/11/05 03:26:42;;;;;;;5.18;2.58;;;;;;;;;;10334529;28;20034;-82
2021/11/05 03:31:42;;;;;;;5.20;2.35;;;;;;;;;;10335368;28;20081;-83
2021/11/05 03:36:42;;;;;;;7.20;1.50;;;;;;;;;;10339911;28;20375;-82
2021/11/05 03:41:43;;;;;;;9.75;2.47;;;;;;;;;;10338729;28;20029;-83
2021/11/05 03:46:43;;;;;;;4.75;1.85;;;;;;;;;;10343243;28;20034;-82
2021/11/05 03:51:43;;;;;;;4.95;1.23;;;;;;;;;;10346234;28;20037;-82
2021/11/05 03:56:44;;;;;;;2.70;2.10;;;;;;;;;;10364734;28;20372;-83
2021/11/05 04:01:44;;;;;;;9.02;2.30;;;;;;;;;;10362640;28;20019;-82
2021/11/05 04:06:44;;;;;;;3.13;1.15;;;;;;;;;;10342980;28;20558;-82
2021/11/05 04:11:44;;;;;;;4.75;1.48;;;;;;;;;;10341384;28;20057;-82
2021/11/05 04:16:44;;;;;;;7.75;1.92;;;;;;;;;;10357160;28;20091;-82
2021/11/05 04:21:45;;;;;;;5.40;1.88;;;;;;;;;;10340994;28;20026;-83
2021/11/05 04:26:45;;;;;;;8.60;2.38;;;;;;;;;;10339658;28;20468;-82
2021/11/05 04:31:45;;;;;;;6.63;1.77;;;;;;;;;;10341287;28;20039;-83
2021/11/05 04:36:46;;;;;;;11.23;2.25;;;;;;;;;;10341861;28;20376;-83
2021/11/05 04:41:46;;;;;;;7.47;2.22;;;;;;;;;;10373711;28;20037;-83
2021/11/05 04:46:49;;;;;;;3.03;1.93;;;;;;;;;;10386069;28;20030;-83
2021/11/05 04:51:49;;;;;;;6.20;2.60;;;;;;;;;;10349548;28;20428;-82
2021/11/05 04:56:50;;;;;;;4.20;2.28;;;;;;;;;;10351733;28;20076;-82
2021/11/05 05:01:50;;;;;;;19.42;3.33;;;;;;;;;;10343921;28;20027;-82
2021/11/05 05:06:53;;;;;;;2.65;2.00;;;;;;;;;;10354331;28;20026;-82
2021/11/05 05:11:54;;;;;;;8.32;2.05;;;;;;;;;;10347056;28;20050;-83
2021/11/05 05:16:54;;;;;;;6.20;2.72;;;;;;;;;;10343866;28;20034;-82
2021/11/05 05:21:54;;;;;;;7.53;2.08;;;;;;;;;;10347092;28;20030;-83
2021/11/05 05:26:55;;;;;;;4.20;2.42;;;;;;;;;;10340631;28;20427;-83
2021/11/05 05:31:55;;;;;;;3.83;2.45;;;;;;;;;;10337429;28;20031;-83
2021/11/05 05:36:55;;;;;;;8.23;4.15;;;;;;;;;;10339756;28;20030;-80
2021/11/05 05:41:55;;;;;;;5.40;2.92;;;;;;;;;;10336675;28;20431;-81
2021/11/05 05:46:55;;;;;;;6.60;2.75;;;;;;;;;;10336219;28;20126;-81
2021/11/05 05:51:56;;;;;;;5.18;3.67;;;;;;;;;;10337051;28;20371;-81
2021/11/05 05:56:58;;;;;;;9.15;2.72;;;;;;;;;;10337965;28;20030;-83
2021/11/05 06:01:59;;;;;;;6.03;3.22;;;;;;;;;;10338755;28;20015;-85
2021/11/05 06:07:00;;;;;;;16.65;3.65;;;;;;;;;;10351690;28;20105;-85
2021/11/05 06:12:00;;;;;;;4.13;2.60;;;;;;;;;;10334969;28;20129;-85
2021/11/05 06:17:00;;;;;;;3.88;3.05;;;;;;;;;;10335442;28;20395;-84
2021/11/05 06:22:00;;;;;;;7.80;3.00;;;;;;;;;;10335292;28;20392;-85
2021/11/05 06:27:01;;;;;;;4.28;3.40;;;;;;;;;;10336258;28;20026;-86
2021/11/05 06:32:01;;;;;;;6.57;3.27;;;;;;;;;;10336299;28;20065;-85
2021/11/05 06:37:02;;;;;;;8.40;5.03;;;;;;;;;;10350683;28;20346;-85
2021/11/05 06:42:02;;;;;;;8.45;3.35;;;;;;;;;;10350560;28;20030;-85
2021/11/05 06:47:02;;;;;;;5.75;3.47;;;;;;;;;;10333386;28;20042;-85
2021/11/05 06:52:03;;;;;;;15.25;4.63;;;;;;;;;;10335247;28;20065;-85
2021/11/05 06:57:03;;;;;;;5.90;4.50;;;;;;;;;;10334765;28;20113;-85
2021/11/05 07:02:03;;;;;;;3.95;3.38;;;;;;;;;;10349617;28;20114;-85
2021/11/05 07:07:03;;;;;;;7.75;3.58;;;;;;;;;;10348796;28;20030;-85
2021/11/05 07:12:04;;;;;;;8.23;3.97;;;;;;;;;;10333040;28;20090;-85
2021/11/05 07:17:04;;;;;;;6.93;4.50;;;;;;;;;;10333947;28;20034;-85
2021/11/05 07:22:04;;;;;;;11.90;4.65;;;;;;;;;;10339850;28;20745;-86
2021/11/05 07:27:05;;;;;;;11.35;5.07;;;;;;;;;;10341827;28;20450;-85
2021/11/05 07:32:08;;;;;;;12.90;7.82;;;;;;;;;;10341734;28;20041;-86
2021/11/05 07:37:11;;;;;;;13.93;8.05;;;;;;;;;;10343057;28;20084;-84
2021/11/05 07:42:12;;;;;;;18.23;6.50;;;;;;;;;;10341476;28;20440;-85
2021/11/05 07:47:13;;;;;;;13.57;4.47;;;;;;;;;;10341764;28;20034;-84
2021/11/05 07:52:15;;;;;;;8.32;4.25;;;;;;;;;;10340509;28;20034;-85
2021/11/05 07:57:15;;;;;;;18.83;4.72;;;;;;;;;;10341229;28;20045;-85
2021/11/05 08:02:16;;;;;;;6.88;3.13;;;;;;;;;;10341781;28;20026;-86
2021/11/05 08:07:20;;;;;;;3.92;2.28;;;;;;;;;;10341273;28;20287;-86
2021/11/05 08:12:20;;;;;;;11.32;3.72;;;;;;;;;;10342097;28;20054;-86
2021/11/05 08:17:20;;;;;;;19.50;2.88;;;;;;;;;;10342809;28;20032;-86
2021/11/05 08:22:21;;;;;;;3.33;2.55;;;;;;;;;;10342667;28;20089;-86
2021/11/05 08:27:21;;;;;;;14.43;2.03;;;;;;;;;;10359016;28;20380;-86
2021/11/05 08:32:21;;;;;;;3.10;2.15;;;;;;;;;;10341116;28;20665;-86
2021/11/05 08:37:21;;;;;;;4.28;2.42;;;;;;;;;;10354789;28;20041;-85
2021/11/05 08:42:22;;;;;;;2.90;1.73;;;;;;;;;;10340540;28;20026;-85
2021/11/05 08:47:22;;;;;;;9.13;2.78;;;;;;;;;;10339168;28;20395;-85
2021/11/05 08:52:22;;;;;;;8.23;1.60;;;;;;;;;;10339132;28;20177;-86
2021/11/05 08:57:22;;;;;;;6.55;1.35;;;;;;;;;;10339965;28;20534;-85
2021/11/05 09:02:22;;;;;;;3.35;1.90;;;;;;;;;;10354551;28;20113;-85
2021/11/05 09:07:24;;;;;;;1.85;1.13;;;;;;;;;;10338109;28;20381;-84
2021/11/05 09:12:25;;;;;;;4.28;1.77;;;;;;;;;;10353335;28;20057;-84
2021/11/05 09:17:25;;;;;;;2.70;1.48;;;;;;;;;;10338345;28;20380;-85
2021/11/05 09:22:25;;;;;;;1.42;1.08;;;;;;;;;;10338515;28;20027;-84
2021/11/05 09:27:28;;;;;;;5.45;1.95;;;;;;;;;;10337865;28;20046;-83
2021/11/05 09:32:29;;;;;;;5.40;1.55;;;;;;;;;;10337786;28;20031;-84
2021/11/05 09:37:29;;;;;;;4.40;1.45;;;;;;;;;;10337197;28;20034;-84
2021/11/05 09:42:30;;;;;;;2.88;1.52;;;;;;;;;;10353302;28;20030;-84
2021/11/05 09:47:30;;;;;;;1.25;1.23;;;;;;;;;;10337903;28;20121;-83
2021/11/05 09:52:30;;;;;;;2.40;1.63;;;;;;;;;;10336579;28;20089;-83
2021/11/05 09:57:31;;;;;;;2.53;1.47;;;;;;;;;;10353799;28;20590;-84
2021/11/05 10:02:31;;;;;;;3.03;1.38;;;;;;;;;;10353379;28;20326;-83
2021/11/05 10:07:34;;;;;;;7.13;2.20;;;;;;;;;;10337239;28;20097;-84
2021/11/05 10:12:34;;;;;;;3.22;1.77;;;;;;;;;;10351969;28;20050;-84
2021/11/05 10:17:36;;;;;;;3.70;1.55;;;;;;;;;;10337918;28;20034;-84
2021/11/05 10:22:57;;;;;;;3.40;1.77;;;;;;;;;;10337476;28;20076;-85
2021/11/05 10:28:07;;;;;;;5.85;1.90;;;;;;;;;;10337914;28;20061;-84
2021/11/05 10:33:07;;;;;;;5.38;2.00;;;;;;;;;;10336690;28;20040;-83
2021/11/05 10:38:10;;;;;;;4.40;1.55;;;;;;;;;;10351847;28;20464;-83
2021/11/05 10:43:10;;;;;;;1.63;1.50;;;;;;;;;;10352895;28;20033;-84
2021/11/05 10:48:11;;;;;;;1.08;1.05;;;;;;;;;;10338255;28;20034;-83
2021/11/05 10:53:14;;;;;;;2.38;1.83;;;;;;;;;;10336564;28;20503;-83
2021/11/05 10:58:17;;;;;;;0.90;0.90;;;;;;;;;;10343686;28;20026;-83
2021/11/05 11:03:21;;;;;;;1.30;1.30;;;;;;;;;;10342347;28;20456;-83
2021/11/05 11:08:26;;;;;;;9.13;1.60;;;;;;;;;;10344101;28;20105;-83
2021/11/05 11:13:27;;;;;;;14.98;3.08;;;;;;;;;;10357575;28;20468;-83
2021/11/05 11:18:28;;;;;;;3.20;1.38;;;;;;;;;;10357018;28;20049;-82
2021/11/05 11:23:28;;;;;;;4.53;1.55;;;;;;;;;;10342091;28;20065;-83
2021/11/05 11:28:28;;;;;;;3.88;1.67;;;;;;;;;;10342418;28;20468;-83
2021/11/05 11:33:28;;;;;;;3.00;1.63;;;;;;;;;;10342972;28;20034;-82
2021/11/05 11:38:29;;;;;;;2.75;1.45;;;;;;;;;;10343216;28;20098;-83
2021/11/05 11:43:30;;;;;;;11.00;1.50;;;;;;;;;;10358095;28;20480;-83
2021/11/05 11:48:43;;;;;;;4.95;2.15;;;;;;;;;;10358509;28;20347;-83
2021/11/05 11:53:44;;;;;;;1.23;1.23;;;;;;;;;;10345329;28;20026;-82
2021/11/05 11:58:51;;;;;;;2.13;1.58;;;;;;;;;;10371077;28;20038;-81
2021/11/05 12:03:56;;;;;;;6.15;1.90;;;;;;;;;;10379159;28;20011;-82
2021/11/05 12:08:56;;;;;;;1.50;0.98;;;;;;;;;;10377770;28;20034;-82
2021/11/05 12:14:16;;;;;;;4.43;1.48;;;;;;;;;;10370201;28;20133;-82
2021/11/05 12:19:17;;;;;;;6.75;2.15;;;;;;;;;;10347337;28;20026;-82
2021/11/05 12:24:21;;;;;;;1.15;1.15;;;;;;;;;;10344013;28;20076;-82
2021/11/05 12:29:34;;;;;;;4.07;2.55;;;;;;;;;;10340546;28;20026;-82
2021/11/05 12:34:37;;;;;;;3.00;1.38;;;;;;;;;;10338445;28;20042;-82
2021/11/05 12:39:38;;;;;;;1.40;1.30;;;;;;;;;;10339471;28;20117;-82
2021/11/05 12:44:55;;;;;;;1.73;1.60;;;;;;;;;;10353800;28;20034;-82
2021/11/05 12:49:58;;;;;;;5.57;1.98;;;;;;;;;;10339371;28;20048;-83
2021/11/05 12:54:59;;;;;;;2.00;1.58;;;;;;;;;;10353349;28;20042;-82
2021/11/05 13:00:01;;;;;;;0.90;0.90;;;;;;;;;;10338635;28;20034;-82
2021/11/05 13:05:07;;;;;;;2.65;1.05;;;;;;;;;;10337222;28;20027;-82
2021/11/05 13:10:07;;;;;;;4.38;1.30;;;;;;;;;;10352982;28;20054;-81
2021/11/05 13:15:07;;;;;;;4.70;1.70;;;;;;;;;;10336338;28;20527;-81
2021/11/05 13:20:24;;;;;;;3.13;1.08;;;;;;;;;;10336499;28;20327;-81
2021/11/05 13:25:26;;;;;;;7.28;1.83;;;;;;;;;;10337544;28;20035;-81
2021/11/05 13:30:30;;;;;;;2.38;1.52;;;;;;;;;;10337439;28;20064;-81
2021/11/05 13:35:30;;;;;;;7.88;1.85;;;;;;;;;;10337932;28;20026;-81
2021/11/05 13:40:30;;;;;;;2.92;1.58;;;;;;;;;;10337690;28;20356;-81
2021/11/05 13:45:31;;;;;;;1.80;1.30;;;;;;;;;;10336490;28;20033;-81
2021/11/05 13:50:31;;;;;;;5.57;1.33;;;;;;;;;;10336036;28;20038;-81
2021/11/05 13:55:32;;;;;;;2.45;1.67;;;;;;;;;;10336361;28;20034;-81
2021/11/05 14:00:43;;;;;;;2.17;1.30;;;;;;;;;;10335895;28;20471;-81
2021/11/05 14:05:43;;;;;;;2.03;1.75;;;;;;;;;;10351148;28;20034;-81
2021/11/05 14:10:56;;;;;;;3.45;1.30;;;;;;;;;;10335501;28;20458;-81
2021/11/05 14:16:09;;;;;;;5.22;2.35;;;;;;;;;;10351683;28;20161;-81
2021/11/05 14:21:16;;;;;;;2.60;1.27;;;;;;;;;;10350441;28;20014;-81
2021/11/05 14:26:26;;;;;;;2.80;1.67;;;;;;;;;;10350052;28;20041;-81
2021/11/05 14:31:26;;;;;;;3.45;1.92;;;;;;;;;;10334945;28;20387;-81
2021/11/05 14:36:28;;;;;;;3.40;1.33;;;;;;;;;;10334695;28;20034;-81
2021/11/05 14:41:28;;;;;;;3.00;1.42;;;;;;;;;;10349939;28;20023;-81
2021/11/05 14:46:42;;;;;;;1.85;0.77;;;;;;;;;;10334383;28;20026;-81
2021/11/05 14:51:42;;;;;;;4.00;1.67;;;;;;;;;;10332832;28;20118;-81
2021/11/05 14:56:43;;;;;;;2.20;1.17;;;;;;;;;;10332002;28;20079;-81
2021/11/05 15:01:43;;;;;;;12.75;2.05;;;;;;;;;;10334898;28;20444;-81
2021/11/05 15:06:44;;;;;;;7.38;1.30;;;;;;;;;;10334322;28;20034;-81
2021/11/05 15:11:44;;;;;;;2.55;1.83;;;;;;;;;;10334725;28;20479;-81
2021/11/05 15:16:44;;;;;;;2.92;1.27;;;;;;;;;;10331682;28;20053;-81
2021/11/05 15:21:45;;;;;;;8.13;2.53;;;;;;;;;;10334233;28;20035;-81
2021/11/05 15:26:45;;;;;;;7.68;2.50;;;;;;;;;;10334175;28;20031;-81
2021/11/05 15:31:45;;;;;;;8.27;2.80;;;;;;;;;;10333558;28;20034;-81
2021/11/05 15:36:45;;;;;;;5.55;1.63;;;;;;;;;;10333113;28;20030;-81
2021/11/05 15:41:45;;;;;;;6.13;1.20;;;;;;;;;;10335918;28;20026;-81
2021/11/05 15:46:46;;;;;;;3.47;1.33;;;;;;;;;;10341140;28;20060;-81
2021/11/05 15:51:46;;;;;;;2.85;2.53;;;;;;;;;;10339971;28;20038;-80
2021/11/05 15:56:46;;;;;;;1.50;1.40;;;;;;;;;;10340025;28;20092;-81
2021/11/05 16:01:47;;;;;;;10.85;2.33;;;;;;;;;;10338917;28;20026;-80
2021/11/05 16:06:47;;;;;;;4.32;1.58;;;;;;;;;;10355194;28;20034;-81
2021/11/05 16:11:47;;;;;;;9.40;2.30;;;;;;;;;;10354983;28;20051;-81
2021/11/05 16:16:47;;;;;;;2.97;1.65;;;;;;;;;;10340408;28;20379;-81
2021/11/05 16:21:47;;;;;;;1.45;1.35;;;;;;;;;;10340970;28;20034;-81
2021/11/05 16:26:48;;;;;;;3.45;2.15;;;;;;;;;;10339634;28;20432;-81
2021/11/05 16:31:48;;;;;;;5.55;2.33;;;;;;;;;;10340001;28;20092;-81
2021/11/05 16:36:48;;;;;;;4.75;2.50;;;;;;;;;;10339723;28;20452;-80
2021/11/05 16:41:48;;;;;;;2.00;1.73;;;;;;;;;;10337779;28;20156;-80
2021/11/05 16:46:49;;;;;;;3.03;2.20;;;;;;;;;;10338280;28;20070;-80
2021/11/05 16:51:49;;;;;;;3.55;2.45;;;;;;;;;;10339074;28;20117;-81
2021/11/05 16:56:49;;;;;;;7.78;2.78;;;;;;;;;;10339003;28;20164;-81
2021/11/05 17:01:49;;;;;;;14.43;2.50;;;;;;;;;;10338670;28;20030;-81
2021/11/05 17:06:50;;;;;;;5.35;2.70;;;;;;;;;;10337974;28;20284;-80
2021/11/05 17:11:50;;;;;;;6.50;2.35;;;;;;;;;;10352999;28;20097;-81
2021/11/05 17:16:51;;;;;;;2.47;2.38;;;;;;;;;;10338924;28;20109;-81
2021/11/05 17:21:51;;;;;;;3.95;1.83;;;;;;;;;;10336842;28;20033;-80
2021/11/05 17:26:51;;;;;;;4.97;3.20;;;;;;;;;;10337624;28;20042;-80
2021/11/05 17:31:52;;;;;;;5.28;2.63;;;;;;;;;;10338005;28;20151;-80
2021/11/05 17:36:52;;;;;;;2.58;2.20;;;;;;;;;;10336682;28;20046;-81
2021/11/05 17:41:53;;;;;;;4.47;1.95;;;;;;;;;;10336713;28;20491;-81
2021/11/05 17:46:53;;;;;;;5.57;2.53;;;;;;;;;;10336658;28;20117;-80
2021/11/05 17:51:53;;;;;;;3.67;2.35;;;;;;;;;;10337194;28;20117;-80
2021/11/05 17:56:53;;;;;;;6.38;2.38;;;;;;;;;;10337338;28;20149;-80
2021/11/05 18:01:54;;;;;;;9.50;2.70;;;;;;;;;;10336771;28;20546;-80
2021/11/05 18:06:54;;;;;;;7.47;2.35;;;;;;;;;;10334733;28;20031;-81
2021/11/05 18:11:54;;;;;;;4.32;2.65;;;;;;;;;;10351022;28;20097;-81
2021/11/05 18:16:54;;;;;;;4.95;3.67;;;;;;;;;;10334058;28;20031;-81
2021/11/05 18:21:55;;;;;;;3.83;2.47;;;;;;;;;;10334669;28;20061;-80
2021/11/05 18:26:55;;;;;;;6.20;2.42;;;;;;;;;;10335468;28;20118;-81
2021/11/05 18:31:56;;;;;;;3.10;2.42;;;;;;;;;;10333870;28;20129;-81
2021/11/05 18:36:56;;;;;;;14.05;2.85;;;;;;;;;;10335328;28;20042;-81
2021/11/05 18:42:00;;;;;;;3.25;2.65;;;;;;;;;;10334568;28;20114;-81
2021/11/05 18:47:00;;;;;;;6.65;2.85;;;;;;;;;;10334636;28;20034;-81
2021/11/05 18:52:00;;;;;;;3.17;2.88;;;;;;;;;;10334095;28;20036;-81
2021/11/05 18:57:01;;;;;;;3.45;2.75;;;;;;;;;;10334645;28;20033;-80
2021/11/05 19:02:02;;;;;;;3.17;2.08;;;;;;;;;;10334021;28;20390;-81
2021/11/05 19:07:02;;;;;;;3.63;2.75;;;;;;;;;;10333810;28;20040;-81
2021/11/05 19:12:02;;;;;;;2.90;2.67;;;;;;;;;;10335018;28;20534;-81
2021/11/05 19:17:04;;;;;;;7.23;3.63;;;;;;;;;;10338122;28;20112;-81
2021/11/05 19:22:04;;;;;;;7.95;2.80;;;;;;;;;;10343960;28;20252;-81
2021/11/05 19:27:04;;;;;;;2.70;2.47;;;;;;;;;;10347948;28;20376;-80
2021/11/05 19:32:05;;;;;;;4.30;1.85;;;;;;;;;;10399523;28;20022;-80
2021/11/05 19:37:05;;;;;;;7.05;2.45;;;;;;;;;;10383552;28;20030;-81
2021/11/05 19:42:06;;;;;;;6.53;2.15;;;;;;;;;;10357831;28;20090;-81
2021/11/05 19:47:06;;;;;;;10.23;3.33;;;;;;;;;;10352491;28;20527;-81
2021/11/05 19:52:06;;;;;;;9.63;4.43;;;;;;;;;;10342965;28;20030;-82
2021/11/05 19:57:06;;;;;;;14.50;4.18;;;;;;;;;;10342538;28;20388;-83
2021/11/05 20:02:06;;;;;;;9.82;3.15;;;;;;;;;;10341500;28;20026;-82
2021/11/05 20:07:07;;;;;;;3.80;3.42;;;;;;;;;;10341268;28;20442;-83
2021/11/05 20:12:07;;;;;;;6.40;2.80;;;;;;;;;;10340579;28;20385;-83
2021/11/05 20:17:10;;;;;;;8.93;2.83;;;;;;;;;;10339843;28;20034;-83
2021/11/05 20:22:10;;;;;;;12.20;3.15;;;;;;;;;;10342362;28;20034;-82
2021/11/05 20:27:10;;;;;;;4.10;2.80;;;;;;;;;;10341776;28;20420;-83
2021/11/05 20:32:10;;;;;;;12.52;3.75;;;;;;;;;;10341591;28;20472;-83
2021/11/05 20:37:12;;;;;;;7.47;3.42;;;;;;;;;;10342234;28;20129;-83
2021/11/05 20:42:12;;;;;;;6.25;3.10;;;;;;;;;;10340052;28;20495;-83
2021/11/05 20:47:13;;;;;;;8.13;2.80;;;;;;;;;;10338609;28;20034;-79
2021/11/05 20:52:13;;;;;;;4.32;2.22;;;;;;;;;;10339062;28;20189;-82
2021/11/05 20:57:13;;;;;;;3.63;2.35;;;;;;;;;;10355510;28;20404;-82
2021/11/05 21:02:13;;;;;;;4.40;2.75;;;;;;;;;;10338818;28;20117;-82
2021/11/05 21:07:14;;;;;;;10.90;2.78;;;;;;;;;;10338518;28;20060;-82
2021/11/05 21:12:14;;;;;;;4.88;2.72;;;;;;;;;;10338295;28;20050;-81
2021/11/05 21:17:14;;;;;;;6.47;2.60;;;;;;;;;;10338646;28;20113;-81
2021/11/05 21:22:15;;;;;;;9.38;4.05;;;;;;;;;;10337656;28;20037;-82
2021/11/05 21:27:15;;;;;;;8.93;3.13;;;;;;;;;;10339653;28;20039;-82
2021/11/05 21:32:15;;;;;;;8.25;3.63;;;;;;;;;;10337866;28;20040;-81
2021/11/05 21:37:16;;;;;;;4.45;3.38;;;;;;;;;;10340731;28;20030;-81
2021/11/05 21:42:17;;;;;;;9.70;3.33;;;;;;;;;;10346545;28;20448;-81
2021/11/05 21:47:17;;;;;;;4.53;3.53;;;;;;;;;;10348401;28;20460;-81
2021/11/05 21:52:17;;;;;;;6.88;3.75;;;;;;;;;;10363205;28;20034;-82
2021/11/05 21:57:18;;;;;;;7.78;2.83;;;;;;;;;;10336439;28;20068;-82
2021/11/05 22:02:18;;;;;;;6.80;3.15;;;;;;;;;;10353815;28;20062;-82
2021/11/05 22:07:18;;;;;;;3.78;2.67;;;;;;;;;;10342545;28;20030;-82
2021/11/05 22:12:19;;;;;;;9.90;3.72;;;;;;;;;;10341654;28;20054;-82
2021/11/05 22:17:22;;;;;;;16.35;3.90;;;;;;;;;;10338774;28;20452;-81
2021/11/05 22:22:22;;;;;;;9.38;3.50;;;;;;;;;;10340962;28;20122;-82
2021/11/05 22:27:22;;;;;;;11.40;4.10;;;;;;;;;;10337174;28;20121;-81
2021/11/05 22:32:27;;;;;;;8.18;3.38;;;;;;;;;;10336309;28;20101;-81
2021/11/05 22:37:28;;;;;;;6.60;3.13;;;;;;;;;;10351464;28;20088;-81
2021/11/05 22:42:29;;;;;;;7.90;3.78;;;;;;;;;;10336964;28;20030;-81
2021/11/05 22:47:30;;;;;;;4.40;3.17;;;;;;;;;;10335079;28;20387;-81
2021/11/05 22:52:30;;;;;;;7.82;3.95;;;;;;;;;;10335100;28;20037;-81
2021/11/05 22:57:30;;;;;;;22.05;4.50;;;;;;;;;;10335612;28;20054;-81
2021/11/05 23:02:30;;;;;;;4.20;2.72;;;;;;;;;;10338003;28;20054;-81
2021/11/05 23:07:30;;;;;;;5.18;3.58;;;;;;;;;;10338775;28;20476;-82
2021/11/05 23:12:31;;;;;;;9.77;3.72;;;;;;;;;;10337834;28;20057;-82
2021/11/05 23:17:31;;;;;;;7.65;3.90;;;;;;;;;;10335108;28;20053;-81
2021/11/05 23:22:31;;;;;;;11.20;4.10;;;;;;;;;;10337731;28;20053;-81
2021/11/05 23:27:31;;;;;;;7.75;3.80;;;;;;;;;;10335419;28;20035;-82
2021/11/05 23:32:32;;;;;;;6.53;3.17;;;;;;;;;;10337254;28;20124;-81
2021/11/05 23:37:32;;;;;;;9.23;4.68;;;;;;;;;;10359402;28;20198;-82
2021/11/05 23:42:33;;;;;;;12.55;5.78;;;;;;;;;;10338900;28;20500;-81
2021/11/05 23:47:33;;;;;;;5.03;4.57;;;;;;;;;;10337561;28;20034;-81
2021/11/05 23:52:33;;;;;;;6.80;3.63;;;;;;;;;;10335784;28;20039;-82
2021/11/05 23:57:34;;;;;;;10.90;3.15;;;;;;;;;;10352701;28;20033;-81
